createdAt,value
2023-03-29T00:02:01.932Z,6.54
2023-03-29T00:04:28.621Z,6.63
2023-03-29T00:06:55.685Z,6.61
2023-03-29T00:09:23.340Z,6.50
2023-03-29T00:11:49.759Z,6.54
2023-03-29T00:14:16.428Z,6.53
2023-03-29T00:16:44.753Z,6.43
2023-03-29T00:19:11.437Z,6.44
2023-03-29T00:21:38.010Z,6.53
2023-03-29T00:24:04.874Z,6.64
2023-03-29T00:26:31.317Z,6.60
2023-03-29T00:28:57.769Z,6.61
2023-03-29T00:31:25.092Z,6.62
2023-03-29T00:33:52.160Z,6.56
2023-03-29T00:36:18.639Z,6.53
2023-03-29T00:38:45.580Z,6.48
2023-03-29T00:41:12.279Z,6.48
2023-03-29T00:43:59.600Z,6.50
2023-03-29T00:46:28.124Z,6.42
2023-03-29T00:48:58.822Z,6.57
2023-03-29T00:51:28.113Z,6.54
2023-03-29T00:54:00.599Z,6.53
2023-03-29T00:56:38.723Z,6.61
2023-03-29T00:59:09.857Z,6.67
2023-03-29T01:01:54.638Z,6.65
2023-03-29T01:04:55.481Z,6.67
2023-03-29T01:07:23.262Z,6.70
2023-03-29T01:10:04.494Z,6.69
2023-03-29T01:12:36.030Z,6.65
2023-03-29T01:15:26.396Z,6.64
2023-03-29T01:18:13.982Z,6.66
2023-03-29T01:21:36.213Z,6.60
2023-03-29T01:24:47.496Z,6.71
2023-03-29T01:27:49.977Z,6.69
2023-03-29T01:30:24.858Z,6.66
2023-03-29T01:32:59.841Z,6.59
2023-03-29T01:35:43.555Z,6.69
2023-03-29T01:38:23.394Z,6.65
2023-03-29T01:40:50.077Z,6.62
2023-03-29T01:43:34.383Z,6.58
2023-03-29T01:46:42.471Z,6.62
2023-03-29T01:49:25.484Z,6.65
2023-03-29T01:51:59.952Z,6.57
2023-03-29T01:54:33.624Z,6.58
2023-03-29T01:57:04.674Z,6.59
2023-03-29T01:59:37.395Z,6.55
2023-03-29T02:02:08.077Z,6.46
2023-03-29T02:04:39.706Z,6.50
2023-03-29T02:07:08.752Z,6.52
2023-03-29T02:09:37.726Z,6.50
2023-03-29T02:12:08.174Z,6.54
2023-03-29T02:14:35.511Z,6.58
2023-03-29T02:17:19.572Z,6.53
2023-03-29T02:19:52.405Z,6.49
2023-03-29T02:22:26.485Z,6.50
2023-03-29T02:24:58.961Z,6.48
2023-03-29T02:27:29.124Z,6.48
2023-03-29T02:29:57.083Z,6.50
2023-03-29T02:32:48.937Z,6.54
2023-03-29T02:35:48.395Z,6.54
2023-03-29T02:38:17.065Z,6.59
2023-03-29T02:40:46.627Z,6.50
2023-03-29T02:43:15.754Z,6.51
2023-03-29T02:45:44.173Z,6.61
2023-03-29T02:48:17.745Z,6.63
2023-03-29T02:50:49.924Z,6.61
2023-03-29T02:53:22.985Z,6.66
2023-03-29T02:55:52.779Z,6.70
2023-03-29T02:58:20.541Z,6.71
2023-03-29T03:00:48.912Z,6.70
2023-03-29T03:03:15.583Z,6.71
2023-03-29T03:05:44.232Z,6.66
2023-03-29T03:08:10.900Z,6.61
2023-03-29T03:10:38.005Z,6.44
2023-03-29T03:13:04.571Z,6.51
2023-03-29T03:15:35.493Z,6.51
2023-03-29T03:18:03.559Z,6.55
2023-03-29T03:20:31.040Z,6.50
2023-03-29T03:22:58.437Z,6.49
2023-03-29T03:25:25.043Z,6.52
2023-03-29T03:27:51.749Z,6.54
2023-03-29T03:30:21.984Z,6.61
2023-03-29T03:33:28.162Z,6.60
2023-03-29T03:36:26.015Z,6.55
2023-03-29T03:38:53.264Z,6.57
2023-03-29T03:41:20.705Z,6.61
2023-03-29T03:43:48.876Z,6.57
2023-03-29T03:46:17.132Z,6.51
2023-03-29T03:48:45.905Z,6.54
2023-03-29T03:51:19.907Z,6.50
2023-03-29T03:53:46.769Z,6.49
2023-03-29T03:56:13.957Z,6.47
2023-03-29T03:58:59.164Z,6.51
2023-03-29T04:01:28.068Z,6.51
2023-03-29T04:04:04.525Z,6.50
2023-03-29T04:06:31.332Z,6.47
2023-03-29T04:09:18.076Z,6.51
2023-03-29T04:11:52.956Z,6.51
2023-03-29T04:14:20.496Z,6.52
2023-03-29T04:17:07.236Z,6.50
2023-03-29T04:19:48.035Z,6.46
2023-03-29T04:22:14.696Z,6.46
2023-03-29T04:24:42.003Z,6.35
2023-03-29T04:27:24.919Z,6.41
2023-03-29T04:29:51.521Z,6.42
2023-03-29T04:32:25.939Z,6.44
2023-03-29T04:34:58.157Z,6.44
2023-03-29T04:37:24.927Z,6.42
2023-03-29T04:39:54.589Z,6.42
2023-03-29T04:42:24.587Z,6.42
2023-03-29T04:44:51.440Z,6.45
2023-03-29T04:47:29.531Z,6.48
2023-03-29T04:50:01.588Z,6.50
2023-03-29T04:52:38.668Z,6.54
2023-03-29T04:55:07.347Z,6.54
2023-03-29T04:57:41.712Z,6.62
2023-03-29T05:00:17.254Z,6.66
2023-03-29T05:03:07.426Z,6.68
2023-03-29T05:05:38.513Z,6.70
2023-03-29T05:08:07.111Z,6.80
2023-03-29T05:10:44.401Z,6.87
2023-03-29T05:13:12.278Z,6.88
2023-03-29T05:15:41.352Z,6.83
2023-03-29T05:18:07.995Z,6.92
2023-03-29T05:20:34.698Z,6.92
2023-03-29T05:23:01.923Z,6.94
2023-03-29T05:25:52.911Z,6.96
2023-03-29T05:28:19.721Z,7.03
2023-03-29T05:30:47.402Z,7.09
2023-03-29T05:33:20.910Z,7.10
2023-03-29T05:35:47.457Z,7.18
2023-03-29T05:38:14.088Z,7.19
2023-03-29T05:40:41.737Z,7.21
2023-03-29T05:43:33.870Z,7.25
2023-03-29T05:46:10.519Z,7.18
2023-03-29T05:48:41.609Z,7.22
2023-03-29T05:51:08.455Z,7.26
2023-03-29T05:53:35.971Z,7.30
2023-03-29T05:56:04.114Z,7.36
2023-03-29T05:58:31.166Z,7.40
2023-03-29T06:01:00.336Z,7.36
2023-03-29T06:03:50.887Z,7.42
2023-03-29T06:06:21.280Z,7.46
2023-03-29T06:08:48.037Z,7.49
2023-03-29T06:11:34.915Z,7.43
2023-03-29T06:14:20.864Z,7.45
2023-03-29T06:16:53.470Z,7.52
2023-03-29T06:19:20.417Z,7.54
2023-03-29T06:21:47.314Z,7.58
2023-03-29T06:24:18.667Z,7.64
2023-03-29T06:26:52.287Z,7.65
2023-03-29T06:29:21.965Z,7.67
2023-03-29T06:31:49.110Z,7.73
2023-03-29T06:34:38.078Z,7.80
2023-03-29T06:37:27.583Z,7.79
2023-03-29T06:40:06.958Z,7.83
2023-03-29T06:42:40.655Z,7.84
2023-03-29T06:45:32.430Z,7.81
2023-03-29T06:48:03.031Z,7.86
2023-03-29T06:50:30.960Z,7.93
2023-03-29T06:53:07.284Z,7.91
2023-03-29T06:55:34.516Z,8.02
2023-03-29T06:58:15.340Z,8.08
2023-03-29T07:00:42.353Z,8.15
2023-03-29T07:03:20.516Z,8.15
2023-03-29T07:05:51.915Z,8.14
2023-03-29T07:08:21.418Z,8.19
2023-03-29T07:11:08.248Z,8.27
2023-03-29T07:14:03.790Z,8.30
2023-03-29T07:16:30.384Z,8.35
2023-03-29T07:19:09.440Z,8.46
2023-03-29T07:21:53.012Z,8.55
2023-03-29T07:24:22.593Z,8.59
2023-03-29T07:27:03.195Z,8.76
2023-03-29T07:29:31.518Z,8.77
2023-03-29T07:31:58.096Z,8.78
2023-03-29T07:34:43.040Z,8.89
2023-03-29T07:37:17.423Z,8.94
2023-03-29T07:39:45.861Z,9.01
2023-03-29T07:42:32.745Z,9.05
2023-03-29T07:44:59.845Z,9.10
2023-03-29T07:47:33.034Z,9.11
2023-03-29T07:49:59.704Z,9.08
2023-03-29T07:52:28.536Z,9.11
2023-03-29T07:54:55.684Z,9.14
2023-03-29T07:57:44.102Z,9.16
2023-03-29T08:00:16.860Z,9.20
2023-03-29T08:02:54.809Z,9.28
2023-03-29T08:05:37.803Z,9.30
2023-03-29T08:08:10.887Z,9.31
2023-03-29T08:10:47.386Z,9.30
2023-03-29T08:13:32.212Z,9.30
2023-03-29T08:16:28.063Z,9.42
2023-03-29T08:19:03.515Z,9.46
2023-03-29T08:21:47.272Z,9.56
2023-03-29T08:24:14.592Z,9.55
2023-03-29T08:26:48.740Z,9.57
2023-03-29T08:29:18.234Z,9.62
2023-03-29T08:31:45.123Z,9.73
2023-03-29T08:34:11.593Z,9.78
2023-03-29T08:36:59.084Z,9.83
2023-03-29T08:39:35.308Z,9.74
2023-03-29T08:42:56.561Z,9.79
2023-03-29T08:45:35.393Z,9.75
2023-03-29T08:48:25.796Z,9.94
2023-03-29T08:50:58.419Z,10.00
2023-03-29T08:53:35.498Z,10.03
2023-03-29T08:56:18.460Z,10.00
2023-03-29T08:58:57.765Z,9.95
2023-03-29T09:01:33.619Z,10.13
2023-03-29T09:04:08.897Z,10.33
2023-03-29T09:06:50.211Z,10.29
2023-03-29T09:09:23.522Z,10.44
2023-03-29T09:12:17.940Z,10.49
2023-03-29T09:14:50.653Z,10.37
2023-03-29T09:17:30.498Z,10.30
2023-03-29T09:20:13.937Z,10.39
2023-03-29T09:22:54.979Z,10.50
2023-03-29T09:25:27.425Z,10.57
2023-03-29T09:28:05.627Z,10.49
2023-03-29T09:31:06.051Z,10.67
2023-03-29T09:33:49.604Z,10.85
2023-03-29T09:36:32.912Z,10.72
2023-03-29T09:39:00.574Z,10.53
2023-03-29T09:41:43.559Z,10.36
2023-03-29T09:46:55.902Z,10.53
2023-03-29T09:49:31.239Z,10.59
2023-03-29T09:52:05.948Z,10.61
2023-03-29T09:54:33.013Z,10.71
2023-03-29T09:57:22.239Z,10.87
2023-03-29T09:59:51.641Z,10.91
2023-03-29T10:02:20.293Z,10.93
2023-03-29T10:04:55.333Z,11.03
2023-03-29T10:07:22.777Z,11.12
2023-03-29T10:09:56.249Z,11.32
2023-03-29T10:12:23.154Z,11.44
2023-03-29T10:14:53.618Z,11.53
2023-03-29T10:17:25.286Z,11.58
2023-03-29T10:19:56.921Z,12.03
2023-03-29T10:22:37.502Z,12.18
2023-03-29T10:25:09.407Z,12.02
2023-03-29T10:27:36.368Z,12.39
2023-03-29T10:30:12.718Z,12.56
2023-03-29T10:32:40.584Z,12.68
2023-03-29T10:35:21.435Z,12.63
2023-03-29T10:37:53.698Z,12.60
2023-03-29T10:40:26.103Z,12.67
2023-03-29T10:42:57.450Z,13.03
2023-03-29T10:45:33.959Z,13.23
2023-03-29T10:48:01.208Z,13.08
2023-03-29T10:50:37.892Z,13.18
2023-03-29T10:53:14.484Z,13.25
2023-03-29T10:55:52.674Z,13.72
2023-03-29T10:58:58.177Z,13.79
2023-03-29T11:01:37.777Z,14.01
2023-03-29T11:04:30.633Z,14.60
2023-03-29T11:07:12.280Z,14.81
2023-03-29T11:10:11.077Z,15.05
2023-03-29T11:13:14.042Z,15.15
2023-03-29T11:16:02.561Z,15.18
2023-03-29T11:18:48.257Z,14.68
2023-03-29T11:21:17.878Z,15.02
2023-03-29T11:24:07.814Z,15.59
2023-03-29T11:26:51.848Z,14.85
2023-03-29T11:29:27.006Z,15.55
2023-03-29T11:32:10.999Z,15.65
2023-03-29T11:35:12.145Z,15.66
2023-03-29T11:38:34.454Z,15.49
2023-03-29T11:41:25.262Z,14.93
2023-03-29T11:44:01.968Z,15.16
2023-03-29T11:46:33.940Z,15.39
2023-03-29T11:49:11.103Z,15.31
2023-03-29T11:51:44.227Z,15.48
2023-03-29T11:54:20.554Z,15.56
2023-03-29T11:56:55.179Z,15.61
2023-03-29T11:59:28.606Z,16.42
2023-03-29T12:02:01.758Z,16.47
2023-03-29T12:04:37.806Z,16.32
2023-03-29T12:07:21.014Z,16.17
2023-03-29T12:09:50.890Z,16.16
2023-03-29T12:12:57.329Z,16.34
2023-03-29T12:15:26.812Z,16.45
2023-03-29T12:18:14.666Z,16.38
2023-03-29T12:20:42.080Z,15.74
2023-03-29T12:23:15.808Z,16.06
2023-03-29T12:26:02.234Z,16.38
2023-03-29T12:28:59.778Z,16.35
2023-03-29T12:31:57.605Z,16.56
2023-03-29T12:34:51.031Z,17.07
2023-03-29T12:37:44.635Z,17.80
2023-03-29T12:40:40.374Z,18.05
2023-03-29T12:43:38.330Z,18.27
2023-03-29T12:46:32.929Z,19.28
2023-03-29T12:49:29.625Z,18.57
2023-03-29T12:52:00.089Z,18.22
2023-03-29T12:54:30.634Z,17.83
2023-03-29T12:57:01.890Z,18.33
2023-03-29T12:59:43.374Z,17.65
2023-03-29T13:02:13.973Z,17.90
2023-03-29T13:04:43.801Z,18.83
2023-03-29T13:07:22.542Z,18.43
2023-03-29T13:09:52.999Z,18.31
2023-03-29T13:12:35.035Z,19.25
2023-03-29T13:15:23.705Z,19.26
2023-03-29T13:18:06.139Z,19.70
2023-03-29T13:20:51.026Z,19.81
2023-03-29T13:23:45.621Z,20.02
2023-03-29T13:26:31.455Z,19.44
2023-03-29T13:29:07.322Z,19.44
2023-03-29T13:31:44.500Z,19.42
2023-03-29T13:34:48.726Z,19.82
2023-03-29T13:37:41.373Z,20.20
2023-03-29T13:40:44.633Z,20.39
2023-03-29T13:43:20.222Z,20.74
2023-03-29T13:45:58.960Z,20.93
2023-03-29T13:48:35.808Z,20.37
2023-03-29T13:51:19.176Z,20.63
2023-03-29T13:53:49.737Z,21.61
2023-03-29T13:56:23.256Z,21.06
2023-03-29T13:58:59.106Z,21.20
2023-03-29T14:01:58.170Z,20.51
2023-03-29T14:04:30.322Z,20.64
2023-03-29T14:06:57.857Z,20.35
2023-03-29T14:09:31.505Z,20.78
2023-03-29T14:12:00.646Z,21.10
2023-03-29T14:14:30.300Z,21.61
2023-03-29T14:16:57.192Z,20.61
2023-03-29T14:19:36.244Z,20.18
2023-03-29T14:22:08.359Z,20.18
2023-03-29T14:24:39.468Z,19.76
2023-03-29T14:27:10.196Z,20.52
2023-03-29T14:29:36.924Z,19.54
2023-03-29T14:32:18.508Z,19.02
2023-03-29T14:34:49.646Z,18.87
2023-03-29T14:37:21.920Z,18.23
2023-03-29T14:39:49.433Z,18.41
2023-03-29T14:42:21.245Z,18.52
2023-03-29T14:44:50.148Z,17.99
2023-03-29T14:47:38.996Z,18.12
2023-03-29T14:50:06.228Z,17.97
2023-03-29T14:52:34.360Z,17.90
2023-03-29T14:55:02.601Z,18.44
2023-03-29T14:57:35.625Z,17.86
2023-03-29T15:00:16.195Z,17.92
2023-03-29T15:02:53.237Z,17.78
2023-03-29T15:05:35.140Z,17.58
2023-03-29T15:08:02.778Z,17.24
2023-03-29T15:10:32.779Z,17.67
2023-03-29T15:13:02.532Z,17.60
2023-03-29T15:15:32.779Z,17.77
2023-03-29T15:18:00.884Z,17.34
2023-03-29T15:20:36.551Z,17.52
2023-03-29T15:23:07.688Z,17.53
2023-03-29T15:25:39.394Z,17.41
2023-03-29T15:28:06.141Z,17.09
2023-03-29T15:30:34.740Z,17.02
2023-03-29T15:33:20.375Z,16.86
2023-03-29T15:35:50.422Z,16.66
2023-03-29T15:38:17.669Z,16.89
2023-03-29T15:40:44.280Z,16.46
2023-03-29T15:43:11.216Z,16.55
2023-03-29T15:45:38.002Z,16.57
2023-03-29T15:48:20.011Z,16.70
2023-03-29T15:50:46.644Z,16.68
2023-03-29T15:53:15.529Z,16.61
2023-03-29T15:55:45.801Z,16.70
2023-03-29T15:58:15.074Z,16.51
2023-03-29T16:00:44.490Z,16.62
2023-03-29T16:03:15.054Z,16.43
2023-03-29T16:05:43.528Z,16.31
2023-03-29T16:08:11.287Z,16.33
2023-03-29T16:10:38.841Z,16.29
2023-03-29T16:13:05.824Z,16.45
2023-03-29T16:15:33.720Z,16.42
2023-03-29T16:18:00.408Z,16.32
2023-03-29T16:20:26.973Z,16.18
2023-03-29T16:22:54.123Z,16.23
2023-03-29T16:25:24.220Z,16.16
2023-03-29T16:27:52.738Z,15.98
2023-03-29T16:30:19.834Z,16.11
2023-03-29T16:32:46.529Z,16.09
2023-03-29T16:35:25.083Z,16.06
2023-03-29T16:37:51.557Z,15.97
2023-03-29T16:40:18.138Z,15.99
2023-03-29T16:42:44.596Z,16.00
2023-03-29T16:45:15.793Z,15.97
2023-03-29T16:47:46.061Z,15.92
2023-03-29T16:50:13.612Z,16.00
2023-03-29T16:52:40.847Z,15.90
2023-03-29T16:55:12.063Z,15.83
2023-03-29T16:57:40.117Z,15.83
2023-03-29T17:00:10.822Z,15.80
2023-03-29T17:02:37.621Z,15.73
2023-03-29T17:05:04.646Z,15.78
2023-03-29T17:07:31.192Z,15.72
2023-03-29T17:09:57.640Z,15.77
2023-03-29T17:12:24.229Z,15.72
2023-03-29T17:14:51.210Z,15.74
2023-03-29T17:17:17.596Z,15.72
2023-03-29T17:19:44.264Z,15.58
2023-03-29T17:22:10.678Z,15.52
2023-03-29T17:24:37.102Z,15.54
2023-03-29T17:27:03.931Z,15.59
2023-03-29T17:29:30.646Z,15.54
2023-03-29T17:31:57.132Z,15.61
2023-03-29T17:34:23.655Z,15.57
2023-03-29T17:36:53.302Z,15.55
2023-03-29T17:39:19.787Z,15.54
2023-03-29T17:41:47.229Z,15.42
2023-03-29T17:44:13.772Z,15.42
2023-03-29T17:46:40.396Z,15.49
2023-03-29T17:49:07.246Z,15.47
2023-03-29T17:51:33.999Z,15.43
2023-03-29T17:54:01.588Z,15.39
2023-03-29T17:56:28.280Z,15.43
2023-03-29T17:58:55.394Z,15.30
2023-03-29T18:01:22.187Z,15.31
2023-03-29T18:03:48.807Z,15.34
2023-03-29T18:06:18.071Z,15.37
2023-03-29T18:08:44.671Z,15.35
2023-03-29T18:11:22.268Z,15.33
2023-03-29T18:13:50.419Z,15.31
2023-03-29T18:16:17.001Z,15.27
2023-03-29T18:18:43.712Z,15.23
2023-03-29T18:21:10.771Z,15.21
2023-03-29T18:23:39.902Z,15.17
2023-03-29T18:26:07.439Z,15.14
2023-03-29T18:28:36.200Z,15.18
2023-03-29T18:31:03.992Z,15.20
2023-03-29T18:33:35.165Z,15.17
2023-03-29T18:36:04.697Z,15.13
2023-03-29T18:38:35.149Z,15.12
2023-03-29T18:41:03.223Z,15.06
2023-03-29T18:43:31.808Z,15.03
2023-03-29T18:45:58.337Z,15.00
2023-03-29T18:48:25.053Z,15.05
2023-03-29T18:50:52.136Z,15.04
2023-03-29T18:53:19.540Z,14.92
2023-03-29T18:55:45.997Z,14.90
2023-03-29T18:58:14.041Z,14.90
2023-03-29T19:00:41.640Z,14.93
2023-03-29T19:03:08.845Z,14.98
2023-03-29T19:05:39.190Z,14.93
2023-03-29T19:08:06.884Z,14.96
2023-03-29T19:10:37.849Z,14.94
2023-03-29T19:13:04.448Z,14.94
2023-03-29T19:15:32.409Z,14.97
2023-03-29T19:17:58.936Z,14.94
2023-03-29T19:20:25.709Z,15.00
2023-03-29T19:22:53.407Z,15.02
2023-03-29T19:25:19.881Z,15.06
2023-03-29T19:27:46.370Z,15.00
2023-03-29T19:30:14.503Z,15.05
2023-03-29T19:32:40.921Z,15.13
2023-03-29T19:35:09.517Z,15.17
2023-03-29T19:37:36.408Z,15.14
2023-03-29T19:40:06.175Z,15.12
2023-03-29T19:42:35.945Z,15.08
2023-03-29T19:45:03.802Z,15.00
2023-03-29T19:47:30.560Z,14.97
2023-03-29T19:50:01.071Z,14.97
2023-03-29T19:52:28.345Z,15.09
2023-03-29T19:54:56.527Z,15.17
2023-03-29T19:57:23.853Z,15.18
2023-03-29T19:59:50.903Z,15.18
2023-03-29T20:02:17.538Z,15.07
2023-03-29T20:04:44.276Z,15.01
2023-03-29T20:07:10.838Z,14.95
2023-03-29T20:09:37.712Z,15.00
2023-03-29T20:12:04.791Z,15.00
2023-03-29T20:14:31.457Z,14.98
2023-03-29T20:16:58.427Z,14.90
2023-03-29T20:19:25.341Z,14.75
2023-03-29T20:21:57.353Z,14.78
2023-03-29T20:24:25.114Z,14.77
2023-03-29T20:26:51.968Z,14.63
2023-03-29T20:29:18.870Z,14.65
2023-03-29T20:31:46.252Z,14.60
2023-03-29T20:34:12.859Z,14.51
2023-03-29T20:36:40.344Z,14.58
2023-03-29T20:39:08.162Z,14.60
2023-03-29T20:41:38.096Z,14.61
2023-03-29T20:44:05.594Z,14.62
2023-03-29T20:46:35.629Z,14.59
2023-03-29T20:49:07.284Z,14.59
2023-03-29T20:51:33.820Z,14.59
2023-03-29T20:54:04.937Z,14.55
2023-03-29T20:56:33.821Z,14.54
2023-03-29T20:59:00.659Z,14.53
2023-03-29T21:01:29.511Z,14.55
2023-03-29T21:03:56.321Z,14.56
2023-03-29T21:06:24.429Z,14.77
2023-03-29T21:08:52.618Z,14.75
2023-03-29T21:11:20.834Z,14.97
2023-03-29T21:13:47.618Z,14.94
2023-03-29T21:16:14.179Z,15.00
2023-03-29T21:18:40.903Z,15.15
2023-03-29T21:21:08.593Z,15.27
2023-03-29T21:23:36.133Z,15.25
2023-03-29T21:26:04.057Z,15.30
2023-03-29T21:28:30.830Z,15.28
2023-03-29T21:30:57.527Z,15.33
2023-03-29T21:33:24.063Z,15.41
2023-03-29T21:35:50.761Z,15.47
2023-03-29T21:38:17.693Z,15.45
2023-03-29T21:40:44.165Z,15.46
2023-03-29T21:43:10.817Z,15.48
2023-03-29T21:45:37.424Z,15.55
2023-03-29T21:48:04.229Z,15.56
2023-03-29T21:50:33.344Z,15.60
2023-03-29T21:53:02.056Z,15.56
2023-03-29T21:55:28.655Z,15.66
2023-03-29T21:57:55.268Z,15.64
2023-03-29T22:00:22.303Z,15.75
2023-03-29T22:02:49.069Z,15.75
2023-03-29T22:05:16.480Z,15.90
2023-03-29T22:07:43.262Z,15.87
2023-03-29T22:10:12.364Z,15.78
2023-03-29T22:12:39.634Z,15.83
2023-03-29T22:15:07.805Z,15.80
2023-03-29T22:17:35.725Z,15.77
2023-03-29T22:20:04.499Z,15.81
2023-03-29T22:22:30.965Z,15.71
2023-03-29T22:24:57.501Z,15.66
2023-03-29T22:27:23.952Z,15.77
2023-03-29T22:29:50.739Z,15.73
2023-03-29T22:32:17.188Z,15.74
2023-03-29T22:34:43.998Z,15.71
2023-03-29T22:37:10.610Z,15.72
2023-03-29T22:39:37.342Z,15.76
2023-03-29T22:42:04.064Z,15.76
2023-03-29T22:44:30.702Z,15.69
2023-03-29T22:46:57.356Z,15.71
2023-03-29T22:49:23.998Z,15.62
2023-03-29T22:51:50.399Z,15.62
2023-03-29T22:54:16.930Z,15.68
2023-03-29T22:56:44.490Z,15.67
2023-03-29T22:59:11.063Z,15.65
2023-03-29T23:01:37.686Z,15.65
2023-03-29T23:04:04.536Z,15.67
2023-03-29T23:06:31.071Z,15.59
2023-03-29T23:08:57.731Z,15.63
2023-03-29T23:11:24.385Z,15.59
2023-03-29T23:13:50.952Z,15.53
2023-03-29T23:16:20.797Z,15.60
2023-03-29T23:18:47.977Z,15.52
2023-03-29T23:21:14.523Z,15.52
2023-03-29T23:23:41.243Z,15.49
2023-03-29T23:26:11.334Z,15.50
2023-03-29T23:28:38.068Z,15.51
2023-03-29T23:31:06.373Z,15.41
2023-03-29T23:33:35.412Z,15.46
2023-03-29T23:36:04.618Z,15.44
2023-03-29T23:38:34.271Z,15.46
2023-03-29T23:41:02.785Z,15.40
2023-03-29T23:43:32.671Z,15.32
2023-03-29T23:46:11.085Z,15.38
2023-03-29T23:48:38.572Z,15.35
2023-03-29T23:51:07.611Z,15.38
2023-03-29T23:53:34.332Z,15.42
2023-03-29T23:56:03.104Z,15.43
2023-03-29T23:58:35.042Z,15.44
